createdAt,value
2023-05-22T00:02:25.400Z,15.18
2023-05-22T00:04:53.466Z,13.48
2023-05-22T00:07:23.180Z,13.32
2023-05-22T00:09:51.136Z,12.70
2023-05-22T00:12:19.201Z,12.98
2023-05-22T00:14:47.484Z,13.18
2023-05-22T00:17:16.739Z,13.82
2023-05-22T00:19:46.386Z,13.63
2023-05-22T00:22:14.765Z,13.60
2023-05-22T00:24:42.817Z,13.32
2023-05-22T00:27:10.816Z,14.43
2023-05-22T00:29:38.959Z,14.35
2023-05-22T00:32:07.811Z,14.07
2023-05-22T00:34:36.027Z,14.90
2023-05-22T00:37:06.093Z,13.85
2023-05-22T00:39:34.277Z,13.68
2023-05-22T00:42:02.920Z,13.07
2023-05-22T00:44:31.362Z,14.73
2023-05-22T00:47:00.029Z,14.05
2023-05-22T00:49:28.405Z,15.68
2023-05-22T00:51:56.451Z,13.68
2023-05-22T00:54:26.036Z,14.48
2023-05-22T00:56:54.481Z,14.32
2023-05-22T00:59:22.814Z,14.18
2023-05-22T01:01:51.354Z,14.80
2023-05-22T01:04:20.020Z,14.02
2023-05-22T01:06:48.924Z,14.70
2023-05-22T01:09:17.270Z,14.35
2023-05-22T01:11:57.317Z,14.50
2023-05-22T01:14:34.982Z,16.63
2023-05-22T01:17:22.874Z,14.90
2023-05-22T01:20:07.116Z,14.50
2023-05-22T01:23:12.150Z,15.75
2023-05-22T01:26:13.540Z,14.40
2023-05-22T01:28:57.571Z,12.30
2023-05-22T01:31:31.118Z,14.15
2023-05-22T01:34:04.960Z,13.48
2023-05-22T01:36:36.558Z,14.48
2023-05-22T01:39:06.547Z,14.75
2023-05-22T01:41:35.927Z,14.60
2023-05-22T01:44:04.798Z,14.43
2023-05-22T01:46:34.627Z,14.63
2023-05-22T01:49:03.119Z,13.35
2023-05-22T01:51:40.339Z,14.27
2023-05-22T01:54:18.331Z,16.35
2023-05-22T01:56:55.059Z,14.75
2023-05-22T01:59:31.072Z,14.05
2023-05-22T02:02:06.337Z,14.32
2023-05-22T02:04:40.138Z,15.40
2023-05-22T02:07:11.995Z,15.25
2023-05-22T02:09:41.618Z,15.85
2023-05-22T02:12:10.820Z,13.55
2023-05-22T02:14:39.722Z,14.48
2023-05-22T02:17:09.419Z,14.52
2023-05-22T02:19:37.913Z,14.85
2023-05-22T02:22:06.722Z,13.55
2023-05-22T02:24:36.966Z,13.85
2023-05-22T02:27:05.285Z,12.90
2023-05-22T02:29:33.724Z,15.20
2023-05-22T02:32:02.053Z,13.88
2023-05-22T02:34:32.358Z,14.88
2023-05-22T02:37:00.999Z,14.35
2023-05-22T02:39:29.261Z,15.32
2023-05-22T02:41:57.268Z,16.25
2023-05-22T02:44:25.419Z,15.25
2023-05-22T02:46:53.435Z,14.70
2023-05-22T02:49:21.845Z,14.05
2023-05-22T02:51:51.475Z,13.65
2023-05-22T02:54:19.453Z,13.40
2023-05-22T02:56:47.414Z,15.20
2023-05-22T02:59:16.603Z,14.20
2023-05-22T03:01:45.273Z,14.65
2023-05-22T03:04:14.195Z,13.57
2023-05-22T03:06:45.581Z,13.82
2023-05-22T03:09:16.140Z,13.32
2023-05-22T03:11:44.426Z,12.60
2023-05-22T03:14:12.397Z,13.55
2023-05-22T03:16:40.488Z,13.82
2023-05-22T03:19:10.108Z,13.93
2023-05-22T03:21:38.248Z,15.63
2023-05-22T03:24:07.212Z,14.98
2023-05-22T03:26:37.390Z,15.70
2023-05-22T03:29:05.730Z,14.57
2023-05-22T03:31:35.155Z,15.77
2023-05-22T03:34:03.719Z,14.65
2023-05-22T03:36:34.137Z,14.48
2023-05-22T03:39:02.562Z,14.63
2023-05-22T03:41:31.400Z,14.35
2023-05-22T03:44:01.015Z,14.55
2023-05-22T03:46:29.556Z,17.05
2023-05-22T03:48:58.163Z,14.88
2023-05-22T03:51:26.271Z,14.50
2023-05-22T03:53:54.446Z,14.82
2023-05-22T03:56:22.769Z,14.05
2023-05-22T03:58:51.484Z,14.93
2023-05-22T04:01:21.139Z,15.80
2023-05-22T04:03:49.150Z,15.90
2023-05-22T04:06:17.674Z,16.15
2023-05-22T04:08:45.735Z,17.50
2023-05-22T04:11:15.812Z,16.15
2023-05-22T04:13:43.884Z,15.35
2023-05-22T04:16:11.949Z,15.88
2023-05-22T04:18:41.695Z,17.98
2023-05-22T04:21:10.222Z,15.15
2023-05-22T04:23:38.752Z,16.58
2023-05-22T04:26:08.889Z,16.40
2023-05-22T04:28:38.154Z,15.60
2023-05-22T04:31:07.750Z,17.60
2023-05-22T04:33:36.586Z,16.58
2023-05-22T04:36:09.807Z,17.60
2023-05-22T04:38:39.245Z,17.38
2023-05-22T04:41:08.930Z,14.80
2023-05-22T04:43:38.835Z,16.73
2023-05-22T04:46:08.453Z,15.63
2023-05-22T04:48:36.963Z,16.13
2023-05-22T04:51:07.215Z,15.77
2023-05-22T04:53:36.117Z,15.57
2023-05-22T04:56:04.585Z,16.58
2023-05-22T04:58:32.917Z,15.63
2023-05-22T05:01:01.541Z,15.82
2023-05-22T05:03:30.081Z,15.10
2023-05-22T05:05:59.615Z,15.23
2023-05-22T05:08:29.411Z,16.30
2023-05-22T05:10:57.463Z,14.93
2023-05-22T05:13:25.657Z,15.55
2023-05-22T05:15:54.259Z,15.88
2023-05-22T05:18:22.704Z,16.52
2023-05-22T05:20:50.800Z,16.42
2023-05-22T05:23:19.063Z,16.95
2023-05-22T05:25:48.817Z,18.95
2023-05-22T05:28:17.157Z,18.65
2023-05-22T05:30:45.390Z,19.38
2023-05-22T05:33:13.550Z,17.80
2023-05-22T05:35:43.092Z,18.13
2023-05-22T05:38:11.412Z,16.90
2023-05-22T05:40:39.947Z,18.23
2023-05-22T05:43:09.956Z,18.75
2023-05-22T05:45:38.234Z,17.23
2023-05-22T05:48:07.179Z,16.85
2023-05-22T05:50:35.543Z,16.38
2023-05-22T05:53:05.099Z,20.42
2023-05-22T05:55:34.626Z,21.88
2023-05-22T05:58:03.086Z,21.98
2023-05-22T06:00:32.878Z,23.13
2023-05-22T06:03:01.336Z,22.73
2023-05-22T06:05:30.562Z,20.67
2023-05-22T06:07:59.043Z,18.77
2023-05-22T06:10:27.265Z,20.05
2023-05-22T06:12:55.414Z,18.67
2023-05-22T06:15:23.403Z,16.52
2023-05-22T06:17:52.867Z,18.05
2023-05-22T06:20:20.896Z,16.75
2023-05-22T06:22:48.882Z,18.42
2023-05-22T06:25:17.308Z,17.48
2023-05-22T06:27:45.696Z,19.92
2023-05-22T06:30:16.830Z,19.45
2023-05-22T06:32:48.305Z,19.58
2023-05-22T06:35:18.452Z,18.95
2023-05-22T06:37:46.742Z,18.98
2023-05-22T06:40:14.982Z,17.45
2023-05-22T06:42:44.838Z,17.17
2023-05-22T06:45:13.467Z,17.90
2023-05-22T06:47:45.051Z,18.15
2023-05-22T06:50:13.488Z,16.70
2023-05-22T06:52:43.433Z,18.65
2023-05-22T06:55:11.440Z,17.88
2023-05-22T06:57:39.874Z,17.08
2023-05-22T07:00:11.640Z,17.90
2023-05-22T07:02:40.295Z,16.98
2023-05-22T07:05:09.208Z,17.25
2023-05-22T07:07:37.218Z,17.55
2023-05-22T07:10:07.972Z,17.88
2023-05-22T07:12:36.496Z,17.08
2023-05-22T07:15:04.933Z,19.58
2023-05-22T07:17:32.989Z,18.52
2023-05-22T07:20:00.964Z,18.98
2023-05-22T07:22:29.031Z,19.83
2023-05-22T07:24:57.149Z,17.20
2023-05-22T07:27:26.540Z,18.85
2023-05-22T07:29:54.653Z,18.98
2023-05-22T07:32:22.793Z,18.55
2023-05-22T07:34:51.088Z,18.02
2023-05-22T07:37:19.350Z,16.83
2023-05-22T07:39:47.886Z,18.92
2023-05-22T07:42:15.932Z,17.08
2023-05-22T07:44:45.451Z,18.00
2023-05-22T07:47:13.600Z,16.40
2023-05-22T07:49:41.589Z,17.58
2023-05-22T07:52:09.734Z,18.70
2023-05-22T07:54:37.779Z,14.65
2023-05-22T07:57:08.240Z,17.02
2023-05-22T07:59:37.794Z,19.42
2023-05-22T08:02:10.203Z,19.10
2023-05-22T08:04:38.586Z,18.30
2023-05-22T08:07:07.010Z,17.77
2023-05-22T08:09:35.761Z,19.08
2023-05-22T08:12:03.922Z,16.17
2023-05-22T08:14:35.547Z,19.10
2023-05-22T08:17:03.604Z,17.83
2023-05-22T08:19:33.498Z,20.05
2023-05-22T08:22:01.586Z,18.98
2023-05-22T08:24:30.648Z,17.55
2023-05-22T08:27:00.827Z,16.00
2023-05-22T08:29:30.113Z,14.98
2023-05-22T08:31:58.610Z,17.50
2023-05-22T08:34:27.095Z,18.10
2023-05-22T08:36:56.484Z,17.30
2023-05-22T08:39:24.820Z,17.50
2023-05-22T08:41:53.325Z,15.95
2023-05-22T08:44:22.114Z,19.67
2023-05-22T08:46:52.793Z,18.50
2023-05-22T08:49:24.274Z,19.08
2023-05-22T08:52:04.450Z,17.85
2023-05-22T08:54:35.104Z,18.77
2023-05-22T08:57:03.962Z,17.45
2023-05-22T08:59:35.465Z,14.73
2023-05-22T09:02:06.818Z,15.75
2023-05-22T09:04:35.628Z,19.42
2023-05-22T09:07:06.809Z,18.00
2023-05-22T09:09:38.433Z,18.52
2023-05-22T09:12:09.388Z,19.38
2023-05-22T09:14:41.074Z,19.13
2023-05-22T09:17:11.384Z,17.08
2023-05-22T09:19:44.173Z,19.08
2023-05-22T09:22:14.685Z,17.38
2023-05-22T09:24:44.156Z,18.40
2023-05-22T09:27:13.233Z,15.38
2023-05-22T09:29:51.465Z,16.67
2023-05-22T09:32:20.989Z,16.58
2023-05-22T09:34:49.345Z,16.63
2023-05-22T09:37:19.409Z,14.40
2023-05-22T09:39:51.527Z,17.20
2023-05-22T09:42:19.924Z,15.63
2023-05-22T09:44:50.334Z,19.27
2023-05-22T09:47:18.374Z,16.13
2023-05-22T09:49:47.613Z,18.25
2023-05-22T09:52:17.579Z,16.50
2023-05-22T09:54:55.023Z,15.95
2023-05-22T09:57:25.007Z,18.40
2023-05-22T09:59:58.140Z,16.45
2023-05-22T10:02:27.690Z,15.45
2023-05-22T10:04:55.833Z,18.08
2023-05-22T10:07:26.026Z,15.40
2023-05-22T10:10:00.986Z,15.13
2023-05-22T10:12:33.857Z,16.00
2023-05-22T10:15:04.030Z,17.58
2023-05-22T10:17:32.993Z,15.27
2023-05-22T10:20:01.148Z,13.95
2023-05-22T10:22:30.971Z,15.05
2023-05-22T10:25:02.025Z,14.63
2023-05-22T10:27:30.032Z,16.70
2023-05-22T10:30:05.225Z,15.18
2023-05-22T10:32:37.169Z,15.75
2023-05-22T10:35:18.583Z,16.38
2023-05-22T10:37:52.042Z,17.33
2023-05-22T10:40:29.249Z,16.85
2023-05-22T10:43:01.626Z,17.30
2023-05-22T10:45:30.442Z,16.42
2023-05-22T10:48:06.695Z,16.30
2023-05-22T10:50:35.407Z,14.80
2023-05-22T10:53:24.526Z,15.30
2023-05-22T10:55:55.911Z,16.30
2023-05-22T10:58:28.592Z,16.13
2023-05-22T11:01:11.004Z,14.95
2023-05-22T11:03:53.470Z,14.10
2023-05-22T11:06:38.854Z,13.82
2023-05-22T11:09:28.125Z,14.85
2023-05-22T11:12:21.131Z,17.30
2023-05-22T11:14:51.779Z,16.33
2023-05-22T11:17:23.265Z,13.18
2023-05-22T11:20:02.607Z,15.20
2023-05-22T11:22:32.565Z,14.20
2023-05-22T11:25:01.063Z,13.20
2023-05-22T11:27:31.207Z,14.05
2023-05-22T11:30:01.902Z,14.65
2023-05-22T11:32:30.466Z,13.32
2023-05-22T11:34:58.833Z,13.80
2023-05-22T11:37:26.807Z,15.02
2023-05-22T11:39:58.051Z,13.60
2023-05-22T11:42:26.311Z,13.27
2023-05-22T11:44:56.940Z,12.05
2023-05-22T11:47:26.711Z,12.45
2023-05-22T11:49:55.600Z,13.23
2023-05-22T11:52:24.226Z,11.18
2023-05-22T11:54:53.873Z,11.70
2023-05-22T11:57:24.315Z,11.27
2023-05-22T11:59:52.399Z,12.82
2023-05-22T12:02:21.975Z,13.27
2023-05-22T12:04:55.552Z,10.73
2023-05-22T12:07:24.128Z,10.77
2023-05-22T12:09:52.381Z,11.48
2023-05-22T12:12:22.737Z,13.27
2023-05-22T12:14:51.325Z,12.57
2023-05-22T12:17:19.586Z,13.57
2023-05-22T12:19:49.138Z,13.80
2023-05-22T12:22:17.242Z,13.02
2023-05-22T12:24:47.158Z,13.68
2023-05-22T12:27:16.109Z,12.70
2023-05-22T12:29:44.342Z,12.55
2023-05-22T12:32:13.561Z,14.20
2023-05-22T12:34:45.625Z,15.20
2023-05-22T12:37:22.890Z,14.35
2023-05-22T12:39:58.220Z,16.80
2023-05-22T12:42:26.533Z,14.00
2023-05-22T12:44:55.511Z,15.20
2023-05-22T12:47:24.575Z,11.48
2023-05-22T12:49:53.091Z,11.65
2023-05-22T12:52:22.541Z,13.70
2023-05-22T12:54:51.972Z,14.80
2023-05-22T12:57:20.079Z,13.43
2023-05-22T12:59:48.488Z,13.20
2023-05-22T13:02:16.955Z,15.32
2023-05-22T13:04:47.949Z,15.50
2023-05-22T13:07:16.318Z,13.55
2023-05-22T13:09:45.888Z,14.77
2023-05-22T13:12:14.448Z,14.90
2023-05-22T13:14:42.802Z,14.48
2023-05-22T13:17:11.148Z,14.63
2023-05-22T13:19:39.428Z,14.68
2023-05-22T13:22:09.132Z,13.38
2023-05-22T13:24:37.405Z,13.10
2023-05-22T13:27:07.706Z,14.10
2023-05-22T13:29:36.190Z,14.07
2023-05-22T13:32:05.236Z,13.10
2023-05-22T13:34:33.926Z,13.57
2023-05-22T13:37:02.894Z,11.38
2023-05-22T13:39:31.313Z,11.80
2023-05-22T13:41:59.894Z,12.55
2023-05-22T13:44:30.015Z,12.90
2023-05-22T13:46:58.585Z,13.20
2023-05-22T13:49:28.035Z,14.45
2023-05-22T13:51:56.093Z,12.82
2023-05-22T13:54:24.181Z,13.57
2023-05-22T13:56:52.203Z,13.93
2023-05-22T13:59:20.257Z,12.38
2023-05-22T14:01:49.867Z,14.40
2023-05-22T14:04:18.152Z,13.35
2023-05-22T14:06:46.183Z,13.07
2023-05-22T14:09:14.172Z,13.82
2023-05-22T14:11:42.386Z,12.38
2023-05-22T14:14:10.366Z,14.43
2023-05-22T14:16:38.436Z,14.93
2023-05-22T14:19:08.229Z,12.98
2023-05-22T14:21:36.639Z,15.65
2023-05-22T14:24:05.382Z,17.33
2023-05-22T14:26:33.517Z,15.65
2023-05-22T14:29:01.898Z,16.20
2023-05-22T14:31:30.408Z,15.45
2023-05-22T14:33:58.901Z,15.40
2023-05-22T14:36:28.410Z,13.27
2023-05-22T14:38:57.696Z,12.90
2023-05-22T14:41:26.626Z,13.45
2023-05-22T14:43:55.011Z,13.15
2023-05-22T14:46:23.317Z,13.70
2023-05-22T14:49:03.412Z,14.40
2023-05-22T14:51:32.941Z,11.80
2023-05-22T14:54:01.283Z,12.40
2023-05-22T14:56:35.081Z,12.15
2023-05-22T14:59:03.563Z,13.52
2023-05-22T15:01:31.667Z,12.77
2023-05-22T15:04:00.065Z,11.25
2023-05-22T15:06:28.285Z,11.43
2023-05-22T15:08:58.148Z,17.15
2023-05-22T15:11:26.604Z,13.00
2023-05-22T15:13:55.638Z,15.02
2023-05-22T15:16:25.705Z,11.55
2023-05-22T15:18:56.317Z,14.68
2023-05-22T15:21:25.785Z,13.82
2023-05-22T15:23:54.262Z,12.68
2023-05-22T15:26:23.779Z,11.40
2023-05-22T15:28:51.982Z,11.80
2023-05-22T15:31:20.307Z,11.68
2023-05-22T15:33:48.617Z,13.18
2023-05-22T15:36:18.818Z,11.80
2023-05-22T15:38:47.161Z,10.52
2023-05-22T15:41:21.304Z,12.65
2023-05-22T15:43:52.489Z,11.77
2023-05-22T15:46:21.890Z,9.02
2023-05-22T15:48:49.868Z,10.75
2023-05-22T15:51:18.195Z,12.55
2023-05-22T15:53:47.045Z,13.35
2023-05-22T15:56:15.111Z,12.77
2023-05-22T15:58:43.190Z,13.80
2023-05-22T16:01:13.629Z,13.23
2023-05-22T16:03:43.870Z,13.85
2023-05-22T16:06:11.975Z,11.73
2023-05-22T16:08:40.434Z,15.75
2023-05-22T16:11:08.527Z,12.10
2023-05-22T16:13:36.653Z,9.00
2023-05-22T16:16:06.199Z,11.48
2023-05-22T16:18:35.985Z,11.25
2023-05-22T16:21:04.849Z,13.05
2023-05-22T16:23:32.964Z,11.98
2023-05-22T16:26:01.141Z,14.43
2023-05-22T16:28:29.198Z,13.85
2023-05-22T16:30:57.186Z,14.43
2023-05-22T16:33:25.447Z,13.57
2023-05-22T16:35:55.141Z,13.65
2023-05-22T16:38:23.080Z,13.65
2023-05-22T16:40:50.972Z,15.88
2023-05-22T16:43:18.939Z,12.88
2023-05-22T16:45:51.095Z,12.68
2023-05-22T16:48:19.715Z,14.70
2023-05-22T16:50:47.714Z,13.43
2023-05-22T16:53:18.034Z,14.18
2023-05-22T16:55:46.329Z,14.07
2023-05-22T16:58:14.316Z,12.88
2023-05-22T17:00:43.339Z,14.43
2023-05-22T17:03:12.017Z,12.80
2023-05-22T17:05:40.712Z,12.13
2023-05-22T17:08:09.091Z,13.38
2023-05-22T17:10:39.172Z,15.77
2023-05-22T17:13:10.372Z,13.68
2023-05-22T17:15:44.229Z,14.88
2023-05-22T17:18:20.139Z,14.77
2023-05-22T17:20:48.578Z,18.52
2023-05-22T17:23:16.948Z,16.42
2023-05-22T17:25:49.691Z,16.38
2023-05-22T17:28:20.414Z,16.92
2023-05-22T17:30:56.552Z,17.70
2023-05-22T17:33:27.225Z,15.52
2023-05-22T17:35:55.428Z,15.73
2023-05-22T17:38:23.416Z,14.52
2023-05-22T17:40:53.639Z,16.58
2023-05-22T17:43:21.586Z,14.95
2023-05-22T17:45:51.056Z,15.10
2023-05-22T17:48:23.648Z,13.45
2023-05-22T17:50:52.203Z,16.70
2023-05-22T17:53:21.145Z,15.50
2023-05-22T17:55:51.030Z,15.55
2023-05-22T17:58:21.205Z,14.23
2023-05-22T18:00:49.950Z,15.90
2023-05-22T18:03:20.434Z,14.50
2023-05-22T18:05:48.990Z,16.55
2023-05-22T18:08:17.435Z,15.52
2023-05-22T18:10:45.678Z,13.35
2023-05-22T18:13:13.836Z,12.93
2023-05-22T18:15:44.962Z,12.77
2023-05-22T18:18:13.734Z,12.90
2023-05-22T18:20:41.976Z,14.25
2023-05-22T18:23:10.343Z,14.98
2023-05-22T18:25:38.748Z,12.65
2023-05-22T18:28:08.374Z,13.43
2023-05-22T18:30:36.802Z,14.40
2023-05-22T18:33:09.119Z,15.55
2023-05-22T18:35:37.366Z,14.77
2023-05-22T18:38:05.383Z,14.82
2023-05-22T18:40:33.445Z,14.20
2023-05-22T18:43:01.507Z,13.93
2023-05-22T18:45:29.557Z,14.77
2023-05-22T18:47:57.708Z,14.75
2023-05-22T18:50:27.859Z,16.45
2023-05-22T18:52:56.559Z,16.98
2023-05-22T18:55:24.738Z,13.40
2023-05-22T18:57:53.192Z,15.27
2023-05-22T19:00:21.383Z,14.38
2023-05-22T19:02:49.486Z,15.18
2023-05-22T19:05:17.490Z,15.07
2023-05-22T19:07:48.369Z,16.65
2023-05-22T19:10:16.743Z,17.27
2023-05-22T19:12:45.154Z,13.68
2023-05-22T19:15:13.317Z,13.82
2023-05-22T19:17:41.335Z,13.98
2023-05-22T19:20:10.280Z,15.05
2023-05-22T19:22:41.460Z,16.42
2023-05-22T19:25:30.177Z,16.30
2023-05-22T19:27:58.201Z,16.55
2023-05-22T19:30:26.264Z,13.75
2023-05-22T19:32:55.952Z,15.25
2023-05-22T19:35:24.467Z,13.07
2023-05-22T19:37:59.988Z,12.80
2023-05-22T19:40:29.446Z,13.95
2023-05-22T19:42:57.961Z,14.70
2023-05-22T19:45:27.687Z,13.00
2023-05-22T19:47:57.082Z,15.45
2023-05-22T19:50:26.317Z,13.93
2023-05-22T19:52:54.625Z,12.80
2023-05-22T19:55:22.942Z,12.35
2023-05-22T19:57:57.620Z,15.30
2023-05-22T20:00:31.078Z,14.40
2023-05-22T20:02:59.499Z,15.20
2023-05-22T20:05:27.834Z,13.32
2023-05-22T20:07:55.991Z,14.45
2023-05-22T20:10:27.086Z,13.00
2023-05-22T20:12:59.657Z,15.45
2023-05-22T20:15:37.681Z,13.65
2023-05-22T20:18:06.918Z,15.18
2023-05-22T20:20:38.134Z,13.57
2023-05-22T20:23:09.560Z,16.42
2023-05-22T20:25:40.549Z,13.25
2023-05-22T20:28:13.198Z,15.10
2023-05-22T20:30:44.237Z,13.75
2023-05-22T20:33:13.827Z,14.55
2023-05-22T20:35:43.361Z,15.38
2023-05-22T20:38:14.518Z,15.48
2023-05-22T20:40:48.002Z,14.63
2023-05-22T20:43:22.682Z,15.05
2023-05-22T20:45:51.234Z,14.18
2023-05-22T20:48:19.553Z,14.43
2023-05-22T20:50:50.879Z,12.50
2023-05-22T20:53:21.971Z,14.25
2023-05-22T20:55:53.449Z,14.75
2023-05-22T20:58:26.165Z,14.05
2023-05-22T21:00:59.719Z,16.25
2023-05-22T21:03:30.522Z,16.33
2023-05-22T21:06:01.874Z,16.58
2023-05-22T21:08:30.177Z,15.18
2023-05-22T21:11:03.474Z,15.00
2023-05-22T21:13:33.343Z,15.20
2023-05-22T21:16:01.984Z,15.98
2023-05-22T21:18:30.420Z,14.95
2023-05-22T21:20:58.942Z,14.13
2023-05-22T21:23:32.215Z,14.90
2023-05-22T21:26:00.568Z,15.10
2023-05-22T21:28:30.592Z,14.38
2023-05-22T21:31:02.522Z,16.23
2023-05-22T21:33:33.288Z,16.80
2023-05-22T21:36:06.683Z,16.88
2023-05-22T21:38:38.103Z,16.88
2023-05-22T21:41:06.662Z,17.15
2023-05-22T21:43:37.795Z,17.95
2023-05-22T21:46:11.440Z,17.98
2023-05-22T21:48:39.674Z,17.73
2023-05-22T21:51:07.892Z,19.35
2023-05-22T21:53:36.093Z,15.80
2023-05-22T21:56:10.265Z,17.08
2023-05-22T21:58:40.414Z,19.33
2023-05-22T22:01:12.894Z,19.10
2023-05-22T22:03:41.146Z,15.82
2023-05-22T22:06:10.314Z,16.52
2023-05-22T22:08:38.439Z,15.55
2023-05-22T22:11:20.804Z,17.23
2023-05-22T22:13:49.744Z,17.15
2023-05-22T22:16:23.963Z,15.60
2023-05-22T22:18:55.895Z,16.83
2023-05-22T22:21:37.955Z,17.48
2023-05-22T22:24:25.236Z,15.65
2023-05-22T22:27:12.070Z,15.70
2023-05-22T22:29:43.847Z,16.95
2023-05-22T22:32:13.871Z,15.32
2023-05-22T22:34:43.280Z,14.52
2023-05-22T22:37:11.736Z,14.68
2023-05-22T22:39:40.041Z,13.95
2023-05-22T22:42:08.970Z,15.10
2023-05-22T22:44:40.575Z,14.30
2023-05-22T22:47:09.857Z,15.55
2023-05-22T22:49:39.372Z,14.15
2023-05-22T22:52:07.783Z,14.27
2023-05-22T22:54:36.042Z,14.10
2023-05-22T22:57:04.859Z,15.50
2023-05-22T22:59:35.629Z,15.85
2023-05-22T23:02:07.611Z,15.60
2023-05-22T23:04:38.654Z,16.25
2023-05-22T23:07:12.174Z,16.77
2023-05-22T23:09:41.085Z,14.05
2023-05-22T23:12:10.139Z,16.08
2023-05-22T23:14:39.042Z,14.73
2023-05-22T23:17:07.829Z,14.73
2023-05-22T23:19:36.598Z,13.27
2023-05-22T23:22:08.092Z,14.65
2023-05-22T23:24:40.548Z,16.25
2023-05-22T23:27:12.486Z,15.43
2023-05-22T23:29:44.505Z,14.10
2023-05-22T23:32:14.689Z,13.55
2023-05-22T23:34:43.306Z,13.88
2023-05-22T23:37:11.630Z,15.98
2023-05-22T23:39:41.095Z,14.13
2023-05-22T23:42:10.019Z,15.35
2023-05-22T23:44:38.106Z,13.50
2023-05-22T23:47:06.909Z,13.93
2023-05-22T23:49:35.324Z,15.18
2023-05-22T23:52:03.891Z,13.20
2023-05-22T23:54:31.942Z,12.93
2023-05-22T23:57:01.601Z,13.93
2023-05-22T23:59:31.371Z,12.80
